createdAt,value
2018-09-04T00:01:13.590Z,100399.97
2018-09-04T00:03:49.593Z,100403.70
2018-09-04T00:06:25.593Z,100400.91
2018-09-04T00:09:01.564Z,100400.64
2018-09-04T00:11:37.450Z,100408.52
2018-09-04T00:14:13.233Z,100402.38
2018-09-04T00:16:49.171Z,100406.25
2018-09-04T00:19:24.980Z,100401.73
2018-09-04T00:22:00.996Z,100403.80
2018-09-04T00:24:36.804Z,100398.23
2018-09-04T00:27:12.718Z,100395.79
2018-09-04T00:29:48.449Z,100392.00
2018-09-04T00:32:24.407Z,100392.34
2018-09-04T00:35:00.256Z,100387.95
2018-09-04T00:37:36.107Z,100377.02
2018-09-04T00:40:11.969Z,100377.23
2018-09-04T00:42:47.940Z,100377.61
2018-09-04T00:45:23.868Z,100380.54
2018-09-04T00:47:59.842Z,100382.62
2018-09-04T00:50:35.633Z,100381.93
2018-09-04T00:53:11.658Z,100380.94
2018-09-04T00:55:47.497Z,100381.02
2018-09-04T00:58:23.374Z,100381.02
2018-09-04T01:00:59.415Z,100380.41
2018-09-04T01:03:35.567Z,100387.08
2018-09-04T01:06:11.578Z,100385.36
2018-09-04T01:08:47.375Z,100391.41
2018-09-04T01:11:23.300Z,100389.09
2018-09-04T01:13:59.367Z,100392.69
2018-09-04T01:16:35.542Z,100392.89
2018-09-04T01:19:11.439Z,100390.48
2018-09-04T01:21:47.308Z,100387.42
2018-09-04T01:24:23.339Z,100386.22
2018-09-04T01:26:59.211Z,100383.28
2018-09-04T01:29:35.204Z,100384.36
2018-09-04T01:32:11.366Z,100380.27
2018-09-04T01:34:47.216Z,100379.08
2018-09-04T01:37:23.293Z,100381.62
2018-09-04T01:39:59.149Z,100386.69
2018-09-04T01:42:34.947Z,100390.42
2018-09-04T01:45:10.882Z,100386.67
2018-09-04T01:47:46.872Z,100387.35
2018-09-04T01:50:22.886Z,100388.35
2018-09-04T01:52:58.837Z,100394.66
2018-09-04T01:55:34.885Z,100394.33
2018-09-04T01:58:10.780Z,100393.33
2018-09-04T02:00:46.626Z,100405.67
2018-09-04T02:03:22.605Z,100400.39
2018-09-04T02:05:58.507Z,100395.48
2018-09-04T02:08:34.456Z,100393.08
2018-09-04T02:11:10.456Z,100386.00
2018-09-04T02:13:46.405Z,100387.06
2018-09-04T02:16:22.429Z,100384.23
2018-09-04T02:18:58.318Z,100379.14
2018-09-04T02:21:34.196Z,100372.22
2018-09-04T02:24:40.661Z,100372.91
2018-09-04T02:27:16.583Z,100375.57
2018-09-04T02:29:52.571Z,100371.44
2018-09-04T02:32:28.430Z,100369.63
2018-09-04T02:35:04.380Z,100372.67
2018-09-04T02:37:40.372Z,100371.34
2018-09-04T02:40:16.344Z,100376.08
2018-09-04T02:42:52.220Z,100377.77
2018-09-04T02:45:28.024Z,100379.83
2018-09-04T02:48:03.824Z,100379.83
2018-09-04T02:50:39.539Z,100375.74
2018-09-04T02:53:15.539Z,100374.55
2018-09-04T02:55:51.465Z,100374.55
2018-09-04T02:58:27.451Z,100373.30
2018-09-04T03:01:03.264Z,100367.23
2018-09-04T03:03:39.162Z,100370.15
2018-09-04T03:06:15.131Z,100366.50
2018-09-04T03:08:51.049Z,100371.63
2018-09-04T03:11:26.970Z,100368.48
2018-09-04T03:14:03.056Z,100367.28
2018-09-04T03:16:39.072Z,100367.90
2018-09-04T03:19:15.059Z,100369.56
2018-09-04T03:21:50.910Z,100363.41
2018-09-04T03:24:26.709Z,100367.88
2018-09-04T03:27:02.492Z,100366.55
2018-09-04T03:29:38.329Z,100358.91
2018-09-04T03:32:14.235Z,100358.31
2018-09-04T03:34:50.195Z,100356.97
2018-09-04T03:37:26.106Z,100351.17
2018-09-04T03:40:01.872Z,100354.08
2018-09-04T03:42:37.860Z,100352.84
2018-09-04T03:45:13.711Z,100355.25
2018-09-04T03:47:49.528Z,100353.69
2018-09-04T03:50:25.517Z,100352.70
2018-09-04T03:53:01.377Z,100354.52
2018-09-04T03:55:37.339Z,100355.35
2018-09-04T03:58:13.407Z,100352.56
2018-09-04T04:00:49.334Z,100356.90
2018-09-04T04:03:25.338Z,100357.84
2018-09-04T04:06:01.153Z,100360.97
2018-09-04T04:08:37.065Z,100363.97
2018-09-04T04:11:12.887Z,100366.88
2018-09-04T04:13:48.871Z,100366.70
2018-09-04T04:16:24.736Z,100366.23
2018-09-04T04:19:00.692Z,100368.50
2018-09-04T04:21:36.387Z,100370.99
2018-09-04T04:24:12.140Z,100363.00
2018-09-04T04:26:48.011Z,100371.59
2018-09-04T04:29:24.139Z,100371.23
2018-09-04T04:31:59.944Z,100374.84
2018-09-04T04:34:35.953Z,100374.58
2018-09-04T04:37:11.813Z,100379.02
2018-09-04T04:39:47.546Z,100382.67
2018-09-04T04:42:23.541Z,100391.72
2018-09-04T04:44:59.535Z,100387.78
2018-09-04T04:47:40.463Z,100392.25
2018-09-04T04:50:16.752Z,100390.80
2018-09-04T04:52:52.683Z,100394.97
2018-09-04T04:55:28.531Z,100396.22
2018-09-04T04:58:04.485Z,100396.22
2018-09-04T05:00:40.428Z,100401.93
2018-09-04T05:03:16.395Z,100408.20
2018-09-04T05:05:52.361Z,100403.59
2018-09-04T05:08:28.346Z,100401.78
2018-09-04T05:11:04.414Z,100397.88
2018-09-04T05:13:40.216Z,100407.97
2018-09-04T05:16:16.250Z,100414.71
2018-09-04T05:18:52.200Z,100420.42
2018-09-04T05:21:28.180Z,100420.78
2018-09-04T05:24:04.188Z,100414.98
2018-09-04T05:26:40.181Z,100417.52
2018-09-04T05:29:15.986Z,100414.06
2018-09-04T05:32:03.096Z,100411.34
2018-09-04T05:34:38.980Z,100411.40
2018-09-04T05:37:14.910Z,100413.00
2018-09-04T05:39:50.915Z,100414.92
2018-09-04T05:42:30.663Z,100415.66
2018-09-04T05:45:07.864Z,100418.73
2018-09-04T05:47:43.845Z,100424.59
2018-09-04T05:50:19.852Z,100427.14
2018-09-04T05:52:55.659Z,100427.40
2018-09-04T05:55:31.483Z,100424.52
2018-09-04T05:58:07.574Z,100422.73
2018-09-04T06:00:48.173Z,100431.95
2018-09-04T06:03:24.146Z,100435.86
2018-09-04T06:05:59.905Z,100433.28
2018-09-04T06:08:35.792Z,100435.20
2018-09-04T06:11:11.696Z,100443.71
2018-09-04T06:13:47.623Z,100443.73
2018-09-04T06:16:23.531Z,100446.33
2018-09-04T06:18:59.343Z,100447.45
2018-09-04T06:21:35.331Z,100445.06
2018-09-04T06:24:11.238Z,100445.86
2018-09-04T06:26:47.096Z,100444.59
2018-09-04T06:29:23.182Z,100450.83
2018-09-04T06:31:59.179Z,100443.64
2018-09-04T06:34:35.041Z,100450.01
2018-09-04T06:37:11.004Z,100445.80
2018-09-04T06:39:47.167Z,100445.84
2018-09-04T06:42:23.176Z,100448.23
2018-09-04T06:44:59.230Z,100446.63
2018-09-04T06:47:35.164Z,100447.84
2018-09-04T06:50:11.039Z,100440.25
2018-09-04T06:52:46.912Z,100437.68
2018-09-04T06:55:22.829Z,100439.59
2018-09-04T06:57:58.736Z,100445.67
2018-09-04T07:00:34.509Z,100447.77
2018-09-04T07:03:10.497Z,100460.45
2018-09-04T07:05:46.503Z,100455.30
2018-09-04T07:08:22.399Z,100460.91
2018-09-04T07:10:58.348Z,100460.83
2018-09-04T07:13:34.177Z,100466.90
2018-09-04T07:16:10.191Z,100461.27
2018-09-04T07:18:46.156Z,100462.34
2018-09-04T07:21:22.070Z,100462.44
2018-09-04T07:23:57.898Z,100468.47
2018-09-04T07:26:33.797Z,100462.48
2018-09-04T07:29:09.953Z,100464.22
2018-09-04T07:31:45.975Z,100464.16
2018-09-04T07:34:21.987Z,100466.58
2018-09-04T07:36:58.011Z,100465.17
2018-09-04T07:39:34.037Z,100462.92
2018-09-04T07:42:10.032Z,100462.61
2018-09-04T07:44:46.109Z,100454.11
2018-09-04T07:47:22.099Z,100454.35
2018-09-04T07:49:58.064Z,100451.23
2018-09-04T07:52:33.980Z,100453.95
2018-09-04T07:55:10.283Z,100451.26
2018-09-04T07:57:46.380Z,100453.08
2018-09-04T08:00:22.363Z,100456.18
2018-09-04T08:02:58.332Z,100462.45
2018-09-04T08:05:34.180Z,100465.09
2018-09-04T08:08:10.153Z,100467.84
2018-09-04T08:10:46.184Z,100464.27
2018-09-04T08:13:22.132Z,100463.72
2018-09-04T08:15:58.185Z,100464.44
2018-09-04T08:18:34.162Z,100463.25
2018-09-04T08:21:10.209Z,100465.06
2018-09-04T08:23:46.231Z,100464.91
2018-09-04T08:26:22.095Z,100471.97
2018-09-04T08:28:57.916Z,100472.88
2018-09-04T08:31:33.957Z,100471.50
2018-09-04T08:34:09.896Z,100472.39
2018-09-04T08:36:45.769Z,100475.58
2018-09-04T08:39:21.855Z,100470.23
2018-09-04T08:41:57.867Z,100475.21
2018-09-04T08:44:33.700Z,100478.92
2018-09-04T08:47:09.782Z,100479.85
2018-09-04T08:49:45.821Z,100481.52
2018-09-04T08:52:21.759Z,100479.31
2018-09-04T08:54:57.753Z,100473.73
2018-09-04T08:57:33.858Z,100475.41
2018-09-04T09:00:09.790Z,100478.09
2018-09-04T09:02:45.835Z,100472.09
2018-09-04T09:05:21.736Z,100474.42
2018-09-04T09:07:58.527Z,100472.72
2018-09-04T09:10:34.649Z,100471.29
2018-09-04T09:13:10.633Z,100463.10
2018-09-04T09:15:46.464Z,100465.75
2018-09-04T09:18:22.536Z,100463.09
2018-09-04T09:20:58.477Z,100461.53
2018-09-04T09:23:34.432Z,100467.19
2018-09-04T09:26:10.428Z,100466.48
2018-09-04T09:28:46.372Z,100466.94
2018-09-04T09:31:22.228Z,100466.41
2018-09-04T09:33:58.052Z,100448.48
2018-09-04T09:36:34.289Z,100453.87
2018-09-04T09:39:11.241Z,100453.17
2018-09-04T09:41:47.331Z,100465.49
2018-09-04T09:44:23.415Z,100459.54
2018-09-04T09:47:03.217Z,100464.16
2018-09-04T09:49:39.171Z,100467.27
2018-09-04T09:52:15.115Z,100463.36
2018-09-04T09:54:51.161Z,100464.75
2018-09-04T09:57:27.302Z,100459.91
2018-09-04T10:00:03.529Z,100459.22
2018-09-04T10:02:44.654Z,100454.66
2018-09-04T10:05:20.611Z,100459.84
2018-09-04T10:07:56.766Z,100456.47
2018-09-04T10:10:32.667Z,100457.42
2018-09-04T10:13:08.566Z,100453.68
2018-09-04T10:15:44.489Z,100450.48
2018-09-04T10:18:20.311Z,100451.15
2018-09-04T10:20:56.157Z,100452.19
2018-09-04T10:23:32.649Z,100457.59
2018-09-04T10:26:08.701Z,100455.93
2018-09-04T10:28:44.492Z,100454.27
2018-09-04T10:31:20.542Z,100455.46
2018-09-04T10:33:56.309Z,100453.61
2018-09-04T10:36:32.341Z,100456.48
2018-09-04T10:39:14.143Z,100450.78
2018-09-04T10:41:50.302Z,100450.27
2018-09-04T10:44:30.568Z,100444.30
2018-09-04T10:47:06.603Z,100438.22
2018-09-04T10:49:42.691Z,100433.07
2018-09-04T10:52:18.643Z,100436.63
2018-09-04T10:54:54.388Z,100430.73
2018-09-04T10:57:30.528Z,100432.38
2018-09-04T11:00:07.297Z,100423.52
2018-09-04T11:02:43.217Z,100422.20
2018-09-04T11:05:19.432Z,100418.79
2018-09-04T11:07:55.472Z,100418.95
2018-09-04T11:10:31.500Z,100416.30
2018-09-04T11:13:08.136Z,100421.20
2018-09-04T11:15:44.103Z,100427.77
2018-09-04T11:18:20.549Z,100418.01
2018-09-04T11:20:56.369Z,100411.59
2018-09-04T11:23:32.453Z,100415.20
2018-09-04T11:26:14.525Z,100416.81
2018-09-04T11:28:54.972Z,100412.55
2018-09-04T11:31:30.766Z,100407.50
2018-09-04T11:34:06.897Z,100409.06
2018-09-04T11:36:42.810Z,100407.23
2018-09-04T11:39:18.652Z,100406.28
2018-09-04T11:41:54.530Z,100402.19
2018-09-04T11:44:30.530Z,100406.77
2018-09-04T11:47:06.537Z,100399.06
2018-09-04T11:49:43.163Z,100400.17
2018-09-04T11:52:19.158Z,100396.59
2018-09-04T11:54:55.309Z,100396.30
2018-09-04T11:57:31.123Z,100398.95
2018-09-04T12:00:09.580Z,100394.78
2018-09-04T12:02:46.100Z,100401.11
2018-09-04T12:05:21.996Z,100398.47
2018-09-04T12:07:57.880Z,100396.56
2018-09-04T12:10:33.866Z,100397.02
2018-09-04T12:13:09.888Z,100399.11
2018-09-04T12:15:45.713Z,100398.50
2018-09-04T12:18:21.568Z,100389.75
2018-09-04T12:20:59.152Z,100392.52
2018-09-04T12:23:34.960Z,100392.52
2018-09-04T12:26:11.825Z,100397.09
2018-09-04T12:28:47.669Z,100393.58
2018-09-04T12:31:23.622Z,100395.52
2018-09-04T12:33:59.668Z,100392.57
2018-09-04T12:36:35.770Z,100393.34
2018-09-04T12:39:11.625Z,100390.36
2018-09-04T12:41:50.417Z,100384.02
2018-09-04T12:44:26.378Z,100382.02
2018-09-04T12:47:02.373Z,100382.42
2018-09-04T12:49:38.403Z,100386.13
2018-09-04T12:52:14.234Z,100374.72
2018-09-04T12:54:50.261Z,100382.63
2018-09-04T12:57:26.129Z,100382.34
2018-09-04T13:00:02.113Z,100378.25
2018-09-04T13:02:38.100Z,100376.33
2018-09-04T13:05:13.952Z,100375.48
2018-09-04T13:07:49.757Z,100373.19
2018-09-04T13:10:25.593Z,100367.50
2018-09-04T13:13:01.533Z,100370.55
2018-09-04T13:15:37.957Z,100364.59
2018-09-04T13:18:13.762Z,100365.08
2018-09-04T13:20:49.893Z,100372.58
2018-09-04T13:23:25.768Z,100376.21
2018-09-04T13:26:01.929Z,100373.84
2018-09-04T13:28:37.936Z,100370.28
2018-09-04T13:31:13.892Z,100364.43
2018-09-04T13:33:49.782Z,100362.55
2018-09-04T13:36:25.923Z,100359.30
2018-09-04T13:39:01.913Z,100359.85
2018-09-04T13:41:37.889Z,100359.90
2018-09-04T13:44:13.987Z,100348.63
2018-09-04T13:46:49.835Z,100357.22
2018-09-04T13:49:25.746Z,100353.31
2018-09-04T13:52:01.778Z,100351.70
2018-09-04T13:54:37.606Z,100345.36
2018-09-04T13:57:13.379Z,100347.32
2018-09-04T13:59:49.357Z,100350.91
2018-09-04T14:02:25.305Z,100345.64
2018-09-04T14:05:01.189Z,100345.41
2018-09-04T14:07:37.157Z,100338.09
2018-09-04T14:10:13.166Z,100337.42
2018-09-04T14:12:49.077Z,100337.94
2018-09-04T14:15:25.294Z,100344.66
2018-09-04T14:18:01.433Z,100343.83
2018-09-04T14:20:37.518Z,100343.41
2018-09-04T14:23:13.502Z,100341.08
2018-09-04T14:25:49.512Z,100340.46
2018-09-04T14:28:41.384Z,100346.06
2018-09-04T14:31:01.667Z,100345.30
2018-09-04T14:33:37.681Z,100340.93
2018-09-04T14:36:13.653Z,100350.25
2018-09-04T14:38:49.485Z,100346.20
2018-09-04T14:41:25.606Z,100347.12
2018-09-04T14:44:01.301Z,100340.31
2018-09-04T14:46:37.284Z,100343.66
2018-09-04T14:49:13.341Z,100342.44
2018-09-04T14:51:49.262Z,100349.41
2018-09-04T14:54:25.163Z,100349.73
2018-09-04T14:57:01.206Z,100350.88
2018-09-04T14:59:37.198Z,100353.68
2018-09-04T15:02:12.992Z,100347.27
2018-09-04T15:05:30.338Z,100349.59
2018-09-04T15:08:06.322Z,100358.44
2018-09-04T15:10:42.246Z,100355.27
2018-09-04T15:13:17.937Z,100361.34
2018-09-04T15:15:53.988Z,100359.01
2018-09-04T15:18:29.866Z,100366.11
2018-09-04T15:21:05.906Z,100365.19
2018-09-04T15:23:41.964Z,100366.98
2018-09-04T15:26:17.922Z,100360.62
2018-09-04T15:28:53.766Z,100362.66
2018-09-04T15:31:29.822Z,100361.98
2018-09-04T15:34:05.833Z,100359.34
2018-09-04T15:36:41.621Z,100359.97
2018-09-04T15:39:17.645Z,100361.02
2018-09-04T15:41:53.573Z,100365.07
2018-09-04T15:44:29.561Z,100366.00
2018-09-04T15:47:05.557Z,100365.64
2018-09-04T15:49:45.750Z,100366.91
2018-09-04T15:52:21.801Z,100362.83
2018-09-04T15:54:57.544Z,100362.62
2018-09-04T15:57:33.297Z,100363.09
2018-09-04T16:00:09.463Z,100359.03
2018-09-04T16:02:45.474Z,100352.44
2018-09-04T16:05:21.320Z,100340.44
2018-09-04T16:07:57.314Z,100346.61
2018-09-04T16:10:33.370Z,100346.88
2018-09-04T16:13:09.402Z,100355.09
2018-09-04T16:15:45.332Z,100364.02
2018-09-04T16:18:21.464Z,100362.20
2018-09-04T16:20:57.533Z,100363.06
2018-09-04T16:23:33.533Z,100360.17
2018-09-04T16:26:09.472Z,100358.25
2018-09-04T16:28:45.448Z,100358.56
2018-09-04T16:31:21.465Z,100368.81
2018-09-04T16:33:57.173Z,100371.80
2018-09-04T16:36:33.210Z,100378.72
2018-09-04T16:39:09.010Z,100383.28
2018-09-04T16:41:45.028Z,100386.54
2018-09-04T16:44:20.795Z,100390.16
2018-09-04T16:46:56.674Z,100391.61
2018-09-04T16:49:32.565Z,100397.98
2018-09-04T16:52:08.497Z,100402.94
2018-09-04T16:54:44.431Z,100401.09
2018-09-04T16:57:20.335Z,100415.12
2018-09-04T16:59:56.317Z,100416.93
2018-09-04T17:02:32.493Z,100416.72
2018-09-04T17:05:08.344Z,100415.19
2018-09-04T17:07:44.484Z,100427.81
2018-09-04T17:10:20.254Z,100423.25
2018-09-04T17:12:56.306Z,100424.23
2018-09-04T17:15:32.168Z,100414.13
2018-09-04T17:18:08.198Z,100423.75
2018-09-04T17:20:44.120Z,100422.19
2018-09-04T17:23:19.893Z,100426.53
2018-09-04T17:25:55.877Z,100419.60
2018-09-04T17:28:31.928Z,100422.27
2018-09-04T17:31:07.842Z,100419.91
2018-09-04T17:33:43.732Z,100425.61
2018-09-04T17:36:19.798Z,100429.75
2018-09-04T17:38:55.793Z,100427.36
2018-09-04T17:41:31.818Z,100426.78
2018-09-04T17:44:07.900Z,100426.36
2018-09-04T17:46:43.817Z,100432.73
2018-09-04T17:49:19.674Z,100435.53
2018-09-04T17:51:55.617Z,100432.31
2018-09-04T17:54:31.421Z,100432.08
2018-09-04T17:57:07.586Z,100429.65
2018-09-04T17:59:43.562Z,100434.14
2018-09-04T18:02:19.561Z,100435.75
2018-09-04T18:04:55.535Z,100429.77
2018-09-04T18:07:31.508Z,100432.70
2018-09-04T18:10:07.667Z,100428.92
2018-09-04T18:12:43.602Z,100431.20
2018-09-04T18:15:19.446Z,100429.12
2018-09-04T18:17:55.355Z,100429.38
2018-09-04T18:20:31.365Z,100431.66
2018-09-04T18:23:07.221Z,100434.80
2018-09-04T18:25:43.107Z,100432.50
2018-09-04T18:28:19.154Z,100442.03
2018-09-04T18:30:55.077Z,100444.26
2018-09-04T18:33:31.017Z,100443.35
2018-09-04T18:36:07.025Z,100441.10
2018-09-04T18:38:42.847Z,100443.98
2018-09-04T18:41:18.685Z,100448.13
2018-09-04T18:43:54.534Z,100452.38
2018-09-04T18:46:30.551Z,100461.37
2018-09-04T18:49:06.601Z,100457.44
2018-09-04T18:51:42.714Z,100461.74
2018-09-04T18:54:18.745Z,100460.83
2018-09-04T18:56:54.537Z,100451.30
2018-09-04T18:59:30.378Z,100455.45
2018-09-04T19:02:06.604Z,100455.45
2018-09-04T19:04:42.576Z,100457.59
2018-09-04T19:07:18.596Z,100463.03
2018-09-04T19:09:54.470Z,100458.45
2018-09-04T19:12:30.366Z,100457.20
2018-09-04T19:15:06.548Z,100454.34
2018-09-04T19:17:42.427Z,100463.16
2018-09-04T19:20:18.540Z,100458.86
2018-09-04T19:25:36.899Z,100460.19
2018-09-04T19:28:43.516Z,100461.95
2018-09-04T19:31:20.110Z,100465.75
2018-09-04T19:33:56.383Z,100466.89
2018-09-04T19:36:32.388Z,100463.49
2018-09-04T19:39:10.020Z,100474.54
2018-09-04T19:41:46.013Z,100471.97
2018-09-04T19:44:21.840Z,100470.55
2018-09-04T19:46:57.770Z,100477.52
2018-09-04T19:49:33.850Z,100475.20
2018-09-04T19:52:09.940Z,100473.86
2018-09-04T19:54:45.964Z,100476.03
2018-09-04T19:57:22.081Z,100472.52
2018-09-04T19:59:58.201Z,100474.20
2018-09-04T20:02:33.968Z,100475.80
2018-09-04T20:05:10.433Z,100472.30
2018-09-04T20:07:46.327Z,100470.66
2018-09-04T20:10:22.309Z,100470.20
2018-09-04T20:12:58.232Z,100468.21
2018-09-04T20:15:34.046Z,100470.81
2018-09-04T20:18:09.933Z,100471.70
2018-09-04T20:20:45.987Z,100476.48
2018-09-04T20:23:21.902Z,100478.40
2018-09-04T20:25:57.877Z,100488.91
2018-09-04T20:28:33.841Z,100485.52
2018-09-04T20:31:12.712Z,100488.09
2018-09-04T20:33:48.996Z,100486.69
2018-09-04T20:36:24.713Z,100488.41
2018-09-04T20:39:00.603Z,100488.28
2018-09-04T20:41:36.677Z,100485.13
2018-09-04T20:44:12.669Z,100490.97
2018-09-04T20:46:48.497Z,100490.63
2018-09-04T20:49:24.385Z,100492.11
2018-09-04T20:52:00.479Z,100491.16
2018-09-04T20:54:36.351Z,100490.30
2018-09-04T20:57:30.045Z,100497.95
2018-09-04T21:00:25.534Z,100498.52
2018-09-04T21:03:18.285Z,100496.08
2018-09-04T21:06:10.881Z,100492.77
2018-09-04T21:09:58.503Z,100490.94
2018-09-04T21:12:34.360Z,100494.73
2018-09-04T21:15:10.270Z,100496.12
2018-09-04T21:17:46.143Z,100493.84
2018-09-04T21:20:25.616Z,100499.22
2018-09-04T21:23:01.594Z,100499.50
2018-09-04T21:25:37.458Z,100502.91
2018-09-04T21:28:13.381Z,100502.70
2018-09-04T21:30:49.300Z,100502.60
2018-09-04T21:33:25.156Z,100500.66
2018-09-04T21:36:00.961Z,100501.27
2018-09-04T21:38:36.934Z,100500.31
2018-09-04T21:41:12.971Z,100494.95
2018-09-04T21:43:49.097Z,100500.94
2018-09-04T21:46:24.914Z,100494.34
2018-09-04T21:49:00.752Z,100491.18
2018-09-04T21:51:36.604Z,100492.52
2018-09-04T21:54:12.482Z,100492.52
2018-09-04T21:56:48.317Z,100490.95
2018-09-04T21:59:24.344Z,100493.77
2018-09-04T22:02:00.298Z,100493.39
2018-09-04T22:04:36.292Z,100490.48
2018-09-04T22:07:13.054Z,100488.80
2018-09-04T22:09:49.055Z,100495.02
2018-09-04T22:12:25.139Z,100494.29
2018-09-04T22:15:00.941Z,100498.80
2018-09-04T22:17:37.913Z,100494.40
2018-09-04T22:20:13.876Z,100501.47
2018-09-04T22:22:49.737Z,100500.75
2018-09-04T22:25:25.740Z,100491.14
2018-09-04T22:28:01.544Z,100500.03
2018-09-04T22:30:37.459Z,100496.84
2018-09-04T22:33:13.456Z,100500.52
2018-09-04T22:35:49.462Z,100496.88
2018-09-04T22:38:25.269Z,100498.84
2018-09-04T22:41:01.290Z,100494.10
2018-09-04T22:43:37.790Z,100492.88
2018-09-04T22:46:13.735Z,100496.41
2018-09-04T22:48:49.537Z,100492.14
2018-09-04T22:51:30.644Z,100490.43
2018-09-04T22:54:07.883Z,100497.02
2018-09-04T22:56:43.975Z,100485.35
2018-09-04T22:59:20.051Z,100486.31
2018-09-04T23:01:55.938Z,100489.14
2018-09-04T23:04:31.869Z,100483.58
2018-09-04T23:07:07.893Z,100491.00
2018-09-04T23:09:44.117Z,100489.69
2018-09-04T23:12:20.116Z,100483.62
2018-09-04T23:14:56.157Z,100485.84
2018-09-04T23:17:32.181Z,100485.84
2018-09-04T23:20:08.280Z,100479.02
2018-09-04T23:22:44.284Z,100478.64
2018-09-04T23:25:20.221Z,100475.62
2018-09-04T23:27:56.117Z,100476.72
2018-09-04T23:30:32.031Z,100477.19
2018-09-04T23:33:08.462Z,100473.92
2018-09-04T23:35:44.418Z,100471.76
2018-09-04T23:38:22.714Z,100472.61
2018-09-04T23:40:58.626Z,100473.35
2018-09-04T23:43:34.617Z,100467.03
2018-09-04T23:46:10.528Z,100475.56
2018-09-04T23:48:46.511Z,100472.89
2018-09-04T23:51:22.444Z,100479.33
2018-09-04T23:53:58.553Z,100471.19
2018-09-04T23:56:34.732Z,100469.74
2018-09-04T23:59:10.669Z,100466.69
